KCDW/CDW METAR and TAF weather

Enter ICAO airport designator
Station Type Date Time Source
KCDW METAR 2020/01/19 22:53 UTC NOAA

KCDW 192253Z 31009KT 10SM SCT050 02/M09 A2988 RMK AO2 SLP126 T00221089


Station Type Date Time Source
KCDW Decoded METAR 2020/01/19 22:53 UTC NOAA

CALDWELL ESSEX COUNTY AIRPORT , NJ, United States (KCDW) 40-53N 074-17W 64M
Jan 19, 2020 - 05:53 PM EST / 2020.01.19 2253 UTC
Wind: from the NW (310 degrees) at 10 MPH (9 KT):0
Visibility: 10 mile(s):0
Sky conditions: partly cloudy
Temperature: 36.0 F (2.2 C)
Dew Point: 16.0 F (-8.9 C)
Relative Humidity: 43%
Pressure (altimeter): 29.88 in. Hg (1011 hPa)
ob: KCDW 192253Z 31009KT 10SM SCT050 02/M09 A2988 RMK AO2 SLP126 T00221089
cycle: 23

Station Type Date Time Source
KCDW TAF UTC NOAA

Error!

Example: see airport list